Archival Weather

Chicago O'Hare International

Chicago, Illinois (KORD)

Report from: Saturday, March 18, 2023 10:25 AM CDT
Current time: Saturday, March 2, 2024 3:06 AM CST

Current weather – Weather history – Daily summaries
Weather forecast

Temperature-8.3°C (17.1°F)
Wind chill-16.7°C (2.0°F)
Dew point-15.6°C (3.9°F)
Winds 14 kts (7.2 m/s, 16.1 mph) West (270°)
Wind gusts 24 kts (12.3 m/s, 27.6 mph)
Visibility10 mi. (16.1 km)
Clouds Ceiling: Broken clouds 2,600 ft. (792 m)
Broken clouds 3,300 ft. (1,006 m)
Altimeter30.01 in.Hg (1016 mB)
PrecipitiationTrace
Precip. events Snow ended 3:22 PM
Relative humidity56 %
Density altitude-2,971 ft. (-906 m)
Remarks Automated weather observing station with precipitation discriminator
Flight conditions Marginal Visual Meteorological Conditions
Raw dataKORD 181525Z 27014G24KT 10SM BKN026 BKN033 M08/M16 A3001 RMK AO2 SNE22 P0000 T10831156
An error has occurred. This application may no longer respond until reloaded. Reload 🗙